• Join FlightAware (Why Join?)
  • Login
  • US Flag 
03:58PM EDT


 

Airport Tracker/Info


-or-


 

Live Flight TrackerFlight Track Log ✈ N7893L ✈ 17-Jul-2013 ✈ KAJR - KMGY

Flight Track Log - Related Links

Times and Time Zones

All times are in EDT time to prevent confusion due to time zone crossing. See the N7893L flight status page for this flight to view local times or setup timezone preferences in your user account.

Time Position Orientation Groundspeed Altitude Reporting Facility
EDT Latitude Longitude Course Direction KTS MPH feet Rate Location/Type
10:23AM 34.5492 -83.6203 North 157 181 4,300  Level Atlanta Center
10:24AM 34.5764 -83.6403 329° Northwest 124 143 5,300 960 Climbing Atlanta Center
10:25AM 34.6033 -83.6603 329° Northwest 113 130 6,300 900 Climbing Atlanta Center
10:26AM 34.6286 -83.6803 327° Northwest 107 123 7,200 780 Climbing Atlanta Center
10:27AM 34.6536 -83.7006 326° Northwest 107 123 7,900 360 Climbing Atlanta Center
10:28AM 34.6763 -83.6929 321° Northwest  Level FlightAware Approximate
10:28AM 34.6831 -83.7256 325° Northwest 117 135 8,000  Level Atlanta Center
10:29AM 34.7206 -83.6974 North  Level Estimated
10:29AM 34.7228 -83.7533 330° Northwest 148 170 8,000  Level Atlanta Center
10:30AM 34.7625 -83.7808 330° Northwest 163 188 8,000  Level Atlanta Center
10:31AM 34.8019 -83.8061 332° Northwest 168 193 8,000  Level Atlanta Center
10:32AM 34.8417 -83.8311 333° Northwest 162 186 8,000  Level Atlanta Center
10:33AM 34.8897 -83.8361 355° North 157 181 8,000  Level Atlanta Center
10:34AM 34.9358 -83.8436 352° North 162 186 8,100  Climbing Atlanta Center
10:35AM 34.9794 -83.8461 357° North 162 186 8,100  Level Atlanta Center
10:36AM 35.0275 -83.8511 355° North 162 186 8,100 -60 Level Atlanta Center
10:37AM 35.0714 -83.8561 355° North 162 186 8,000  Descending Atlanta Center
10:38AM 35.1172 -83.8586 357° North 162 186 8,100  Climbing Atlanta Center
10:39AM 35.1631 -83.8633 355° North 162 186 8,100 -60 Level Atlanta Center
10:40AM 35.2111 -83.8658 358° North 162 186 8,000  Descending Atlanta Center
10:41AM 35.2569 -83.8658 360° North 162 186 8,100  Climbing Atlanta Center
10:42AM 35.3031 -83.8683 357° North 162 186 8,100  Level Atlanta Center
10:43AM 35.3489 -83.8706 358° North 162 186 8,100 -60 Level Atlanta Center
10:44AM 35.3969 -83.8706 360° North 162 186 8,000 -60 Descending Atlanta Center
10:45AM 35.4428 -83.8756 355° North 162 186 8,000  Level Atlanta Center
10:46AM 35.4908 -83.8756 360° North 162 186 8,000  Level Atlanta Center
10:47AM 35.5367 -83.8781 357° North 162 186 8,000  Level Atlanta Center
10:48AM 35.5825 -83.8831 355° North 162 186 8,000  Level Atlanta Center
10:49AM 35.6283 -83.8831 360° North 162 186 8,100 -180 Climbing Atlanta Center
10:51AM 35.6856 -83.8831 360° North  Level FlightAware Approximate
10:57AM 35.9853 -83.9464 347° North 172 198 6,900  Level Atlanta Center
10:58AM 35.9959 -83.9101 347° North  Level FlightAware Approximate
10:58AM 36.0353 -83.9539 353° North 184 212 6,000  Level Atlanta Center
10:59AM 36.0401 -83.9224 347° North  Level FlightAware Approximate
10:59AM 36.0833 -83.9592 355° North 184 212 5,300  Level Atlanta Center
11:00AM 36.0843 -83.9348 347° North  Level FlightAware Approximate
11:00AM 36.1333 -83.9694 351° North 184 212 4,400  Level Atlanta Center
11:01AM 36.1285 -83.9472 347° North  Level FlightAware Approximate
11:01AM 36.1814 -83.9769 353° North 176 203 4,100  Level Atlanta Center
11:02AM 36.2250 -83.9847 352° North 171 197 4,000 -300 Descending Atlanta Center
11:03AM 36.2711 -83.9872 357° North 171 197 3,600 -360 Descending Atlanta Center
11:03AM 36.2872 -83.9847 North 160 184 3,500 -300 Descending Indianapolis Center
11:04AM 36.3378 -83.9900 355° North 161 185 3,200 -420 Descending Indianapolis Center
11:05AM 36.3472 -84.0444 282° West 172 198 2,700 -360 Descending Indianapolis Center
11:06AM 36.3467 -83.9958 91° East 141 162 2,500 -300 Descending Indianapolis Center
11:07AM 36.3614 -83.9961 359° North 58 67 2,100 1,560 Descending Indianapolis Center
11:10AM 36.3961 -84.1575 285° West 171 197 8,000 1,740 Climbing Atlanta Center
11:11AM 36.3961 -84.1575 360° North 171 197 8,000  Level Atlanta Center
11:13AM 36.3961 -84.1575 360° North 171 197 8,000  Level Atlanta Center
11:15AM 36.3961 -84.1575 360° North 171 197 8,000 -240 Level Atlanta Center
11:18AM 36.4571 -84.0948 40° Northeast  Level FlightAware Approximate
11:19AM 36.5100 -84.0450 354° North 103 119 6,700  Level Indianapolis Center
11:20AM 36.5381 -84.0558 343° North 105 121 7,400 660 Climbing Indianapolis Center
11:21AM 36.5694 -84.0550 North 111 128 8,100 300 Climbing Indianapolis Center
11:22AM 36.6072 -84.0578 357° North 124 143 8,100  Level Indianapolis Center
11:24AM 36.6606 -84.0614 357° North 153 176 8,100  Level Indianapolis Center
11:25AM 36.7861 -84.1079 354° North  Level Estimated
11:25AM 36.7067 -84.0633 358° North 163 188 8,100  Level Indianapolis Center
11:26AM 36.7517 -84.0681 355° North 162 186 8,100  Level Indianapolis Center
11:27AM 36.7975 -84.0733 355° North 164 189 8,100  Level Indianapolis Center
11:28AM 36.8417 -84.0783 355° North 161 185 8,100  Level Indianapolis Center
11:29AM 36.8875 -84.0847 354° North 163 188 8,100  Level Indianapolis Center
11:30AM 36.9336 -84.0931 352° North 166 191 8,100  Level Indianapolis Center
11:31AM 36.9861 -84.1033 351° North 165 190 8,100  Level Indianapolis Center
11:32AM 37.0333 -84.1139 350° North 168 193 8,100  Level Indianapolis Center
11:33AM 37.0783 -84.1222 352° North 166 191 8,100  Level Indianapolis Center
11:34AM 37.1242 -84.1253 357° North 164 189 8,100  Level Indianapolis Center
11:35AM 37.1703 -84.1222 North 165 190 8,100  Level Indianapolis Center
11:36AM 37.2167 -84.1228 359° North 166 191 8,100  Level Indianapolis Center
11:37AM 37.2711 -84.1253 358° North 167 192 8,100 60 Level Indianapolis Center
11:38AM 37.3164 -84.1242 North 164 189 8,300  Climbing Indianapolis Center
11:39AM 37.3592 -84.1381 346° North 161 185 8,100 -120 Descending Indianapolis Center
11:40AM 37.4069 -84.1358 North 168 193 8,100  Level Indianapolis Center
11:41AM 37.4539 -84.1350 North 168 193 8,100  Level Indianapolis Center
11:42AM 37.5011 -84.1356 359° North 169 194 8,100  Level Indianapolis Center
11:43AM 37.5481 -84.1356 360° North 168 193 8,100  Level Indianapolis Center
11:44AM 37.6025 -84.1364 359° North 169 194 8,100  Level Indianapolis Center
11:45AM 37.6492 -84.1367 360° North 168 193 8,100  Level Indianapolis Center
11:46AM 37.6961 -84.1372 359° North 168 193 8,100  Level Indianapolis Center
11:47AM 37.7439 -84.1375 360° North 170 196 8,100  Level Indianapolis Center
11:48AM 37.7894 -84.1503 348° North 169 194 8,100  Level Indianapolis Center
11:49AM 37.8358 -84.1653 346° North 170 196 8,100  Level Indianapolis Center
11:50AM 37.8906 -84.1819 346° North 173 199 8,100  Level Indianapolis Center
11:51AM 37.9358 -84.2003 342° North 171 197 8,100 -60 Level Indianapolis Center
11:52AM 37.9831 -84.2153 346° North 173 199 8,000 -60 Descending Indianapolis Center
11:53AM 38.0303 -84.2139 North 170 196 8,000  Level Indianapolis Center
11:54AM 38.0783 -84.2147 359° North 171 197 8,000  Level Indianapolis Center
11:55AM 38.1264 -84.2150 360° North 172 198 8,000  Level Indianapolis Center
11:57AM 38.1831 -84.2164 359° North 173 199 8,000  Level Indianapolis Center
11:58AM 38.2314 -84.2169 359° North 173 199 8,000  Level Indianapolis Center
11:59AM 38.2797 -84.2164 North 173 199 8,000  Level Indianapolis Center
12:00PM 38.3275 -84.2114 North 171 197 8,000  Level Indianapolis Center
12:02PM 38.4231 -84.2072 North 170 196 8,000  Level Indianapolis Center
12:03PM 38.4778 -84.2122 356° North 168 193 8,100  Climbing Indianapolis Center
12:04PM 38.5253 -84.2147 358° North 170 196 8,100  Level Indianapolis Center
12:05PM 38.5733 -84.2136 North 171 197 8,100 -120 Level Indianapolis Center
12:06PM 38.6211 -84.2186 355° North 172 198 7,900 -480 Descending Indianapolis Center
12:07PM 38.6742 -84.2225 357° North 180 207 7,200 -420 Descending Indianapolis Center
12:08PM 38.7258 -84.2200 North 184 212 7,100 -120 Descending Indianapolis Center
12:09PM 38.7742 -84.2139 North 175 201 7,000  Descending Indianapolis Center
12:10PM 38.8289 -84.2036 North 169 194 7,100  Climbing Indianapolis Center
12:11PM 38.8753 -84.1894 13° North 169 194 7,000 -300 Descending Indianapolis Center
12:12PM 38.9236 -84.1806 North 173 199 6,600 -540 Descending Indianapolis Center
12:13PM 38.9742 -84.1625 16° North 185 213 5,900 -540 Descending Indianapolis Center
12:14PM 39.0178 -84.1372 24° Northeast 182 209 5,600 -300 Descending Indianapolis Center